Kingsville Naval Air Station
KNQI : now visible

Airfield :











YOU CAN JOIN US ON...

 
LOGIN :

Register | Disclaimer

   EN    FR    IT 

 









Legend :    VFR   Marginal VFR   IFR   Intensive IFR   Very Intensive IFR
Visi :
Ceiling :
>= 8 km
>= 3000ft
5 to 8 km
1000 to 3000 ft
1500m to 5 km
500 to 1000 ft
800 to 1500m
200 to 500 ft
< 800m
< 200 ft
Symbols :   Thunderstorms  Fog  Heavy snow  Heavy precipitations  Wind > 20 kt






- Airport Elevation : 50 ft


KNQI - Kingsville Naval Air Station

CURRENT METAR :
  • 271256Z 14005KT 8SM FEW015 BKN019 OVC140 24/22 A2994 RMK AO2 RAB03E12 SLP135 T2 SET P0000 T02390222

EXPIRED METARs :
  • 271230Z AUTO 14004KT 8SM BKN020 24/22 A2994 RMK AO2 RAB03E12 P0000 T02390222
  • 271221Z AUTO 15005KT 8SM SCT020 24/22 A2994 RMK AO2 RAB03E12 P0000 T02390222
  • 271156Z AUTO 16007KT 8SM SCT014 BKN020 24/22 A2992 RMK AO2 SLP130 T02440222 10244 20239 53006
  • 271115Z AUTO 15008KT 9SM BKN014 24/22 A2991 RMK AO2 T02440222
  • 271108Z AUTO 17007KT 9SM OVC016 24/22 A2991 RMK AO2 T02440222
  • 271056Z AUTO 16006KT 9SM BKN014 OVC020 24/22 A2991 RMK AO2 SLP124 T02440222

Expired Forecast.
KZHU FIR / North America



MET'MAP, your aeronautical weather chart ! - Copyright ORBIFLY December 2007 - Disclaimer

ORBIFLY MET'MAP TEAM :

Programming & Development : Alexandra Zaïnal
Concept & original design : Baudouin d'Aumeries
Assistance for programming : Marc-Olivier Méhu
Technical & hardware support : Manuel Goepfert

Contact : metmap@orbifly.com




SOURCES & CREDITS :

   NOAA       Earth
Advisory